Time;durP1;ratioP1;P1;durP2;ratioP2;P2;SDS_P1;SDS_P2;PMS_P1;PMS_P2;Temp;Humidity;BMP_temperature;BMP_pressure;BME280_temperature;BME280_humidity;BME280_pressure;Samples;Min_cycle;Max_cycle;Signal;HPM_P1;HPM_P2
2023/09/10 00:00:46;;;;;;;24.20;13.00;;;;;;;16.09;81.54;100575.69;109766;1277;22316;-80
2023/09/10 00:03:37;;;;;;;24.80;12.40;;;;;;;16.10;82.07;100571.70;109767;1279;22351;-81
2023/09/10 00:06:09;;;;;;;25.30;12.10;;;;;;;16.09;82.03;100572.20;109746;1284;22445;-80
2023/09/10 00:08:40;;;;;;;23.10;12.30;;;;;;;16.07;82.10;100573.59;109751;1276;23496;-80
2023/09/10 00:11:11;;;;;;;21.60;11.20;;;;;;;16.06;82.31;100571.34;109791;1277;22336;-80
2023/09/10 00:13:44;;;;;;;24.60;11.80;;;;;;;16.03;82.37;100566.56;109781;1283;22156;-81
2023/09/10 00:16:15;;;;;;;25.50;11.90;;;;;;;15.98;82.45;100564.40;109766;1277;22534;-81
2023/09/10 00:18:46;;;;;;;22.80;12.10;;;;;;;15.93;82.45;100565.58;109699;1284;22155;-81
2023/09/10 00:21:17;;;;;;;28.50;12.50;;;;;;;15.91;82.50;100565.36;109752;1266;22214;-80
2023/09/10 00:23:47;;;;;;;26.00;12.90;;;;;;;15.89;82.69;100565.77;109762;1276;22401;-80
2023/09/10 00:26:18;;;;;;;23.80;11.80;;;;;;;15.85;82.78;100563.96;109772;1280;23042;-80
2023/09/10 00:28:51;;;;;;;23.40;12.50;;;;;;;15.82;82.74;100564.26;109767;1277;22339;-80
2023/09/10 00:31:22;;;;;;;22.70;11.90;;;;;;;15.81;82.74;100562.92;109808;1276;22178;-80
2023/09/10 00:33:53;;;;;;;21.90;11.10;;;;;;;15.76;82.84;100564.03;109790;1277;22180;-81
2023/09/10 00:36:23;;;;;;;21.60;10.60;;;;;;;15.72;82.97;100569.14;109768;1277;22202;-80
2023/09/10 00:38:55;;;;;;;22.10;12.00;;;;;;;15.68;83.04;100565.19;109774;1277;22206;-81
2023/09/10 00:41:25;;;;;;;31.90;13.10;;;;;;;15.62;83.07;100569.12;109228;1276;22629;-81
2023/09/10 00:43:56;;;;;;;24.40;11.50;;;;;;;15.56;83.07;100567.65;109491;1276;22546;-81
2023/09/10 00:46:28;;;;;;;21.40;10.80;;;;;;;15.51;83.22;100570.55;108410;1277;22566;-81
2023/09/10 00:48:59;;;;;;;24.20;12.40;;;;;;;15.47;83.20;100570.42;108010;1280;22641;-81
2023/09/10 00:51:32;;;;;;;25.80;11.20;;;;;;;15.41;83.33;100573.20;107997;1276;22654;-80
2023/09/10 00:54:03;;;;;;;23.30;11.80;;;;;;;15.32;83.49;100569.21;109772;1277;22722;-80
2023/09/10 00:56:36;;;;;;;21.30;10.60;;;;;;;15.25;83.56;100566.55;109762;1276;22183;-80
2023/09/10 00:59:08;;;;;;;19.90;11.90;;;;;;;15.22;83.52;100569.09;109745;1283;22357;-81
2023/09/10 01:01:39;;;;;;;19.50;9.90;;;;;;;15.17;83.55;100567.18;109748;1283;22408;-81
2023/09/10 01:04:10;;;;;;;21.30;10.60;;;;;;;15.14;83.54;100568.59;109771;1282;22828;-81
2023/09/10 01:06:41;;;;;;;24.70;11.00;;;;;;;15.08;83.46;100574.48;109764;1284;22825;-80
2023/09/10 01:09:11;;;;;;;20.60;11.30;;;;;;;15.02;83.65;100574.29;109729;1284;22210;-81
2023/09/10 01:11:51;;;;;;;19.50;10.50;;;;;;;14.97;83.82;100574.98;109752;1283;22150;-80
2023/09/10 01:14:28;;;;;;;20.80;10.60;;;;;;;14.94;83.92;100576.65;109765;1280;22337;-80
2023/09/10 01:17:11;;;;;;;21.50;10.70;;;;;;;14.90;83.68;100576.69;109758;1276;22887;-81
2023/09/10 01:20:11;;;;;;;22.20;11.20;;;;;;;14.84;83.80;100574.95;109700;1277;22340;-80
2023/09/10 01:22:52;;;;;;;22.40;10.40;;;;;;;14.78;83.87;100576.28;109759;1273;22151;-81
2023/09/10 01:25:24;;;;;;;18.90;10.90;;;;;;;14.73;83.95;100575.64;109758;1283;22692;-81
2023/09/10 01:27:55;;;;;;;21.70;10.80;;;;;;;14.73;83.89;100574.30;109801;1279;22782;-81
2023/09/10 01:30:26;;;;;;;23.40;10.70;;;;;;;14.74;83.86;100571.05;109703;1280;22169;-81
2023/09/10 01:33:04;;;;;;;21.10;11.90;;;;;;;14.74;84.07;100567.00;109750;1276;22205;-81
2023/09/10 01:35:41;;;;;;;20.90;11.30;;;;;;;14.73;84.28;100575.08;109793;1283;22159;-81
2023/09/10 01:38:22;;;;;;;23.80;11.30;;;;;;;14.70;84.36;100568.29;109782;1283;22388;-81
2023/09/10 01:40:58;;;;;;;20.80;11.20;;;;;;;14.67;84.34;100570.21;109772;1280;22203;-81
2023/09/10 01:43:29;;;;;;;24.40;11.20;;;;;;;14.64;84.49;100568.09;109772;1284;22935;-81
2023/09/10 01:46:00;;;;;;;19.80;10.50;;;;;;;14.58;84.78;100570.31;109777;1276;22180;-81
2023/09/10 01:48:31;;;;;;;23.30;10.80;;;;;;;14.56;84.68;100573.88;109805;1283;22309;-81
2023/09/10 01:51:02;;;;;;;22.20;11.00;;;;;;;14.55;84.88;100571.96;109765;1273;22205;-81
2023/09/10 01:53:33;;;;;;;21.60;10.40;;;;;;;14.53;84.76;100569.75;109769;1283;22431;-81
2023/09/10 01:56:05;;;;;;;21.40;10.60;;;;;;;14.50;84.78;100570.35;109753;1284;22363;-81
2023/09/10 01:58:37;;;;;;;20.70;10.40;;;;;;;14.46;84.88;100572.40;109765;1284;22200;-81
2023/09/10 02:01:09;;;;;;;21.10;10.90;;;;;;;14.42;85.02;100571.81;109790;1283;22424;-81
2023/09/10 02:03:40;;;;;;;21.40;10.30;;;;;;;14.40;84.92;100567.91;109795;1283;23147;-81
2023/09/10 02:06:11;;;;;;;21.90;10.60;;;;;;;14.38;84.93;100564.63;109749;1277;22172;-82
2023/09/10 02:08:42;;;;;;;21.30;10.70;;;;;;;14.37;85.02;100562.62;109760;1276;22140;-81
2023/09/10 02:11:13;;;;;;;20.90;10.40;;;;;;;14.34;85.27;100565.66;109779;1276;22167;-81
2023/09/10 02:13:46;;;;;;;23.70;11.40;;;;;;;14.33;85.42;100569.48;109778;1284;22229;-81
2023/09/10 02:16:16;;;;;;;24.50;12.30;;;;;;;14.30;85.80;100569.03;109772;1264;22151;-81
2023/09/10 02:18:47;;;;;;;23.80;12.00;;;;;;;14.29;86.21;100565.77;109782;1283;23034;-81
2023/09/10 02:21:18;;;;;;;23.50;12.20;;;;;;;14.28;86.17;100567.88;109784;1276;22210;-81
2023/09/10 02:23:49;;;;;;;22.40;11.50;;;;;;;14.26;86.09;100567.76;109750;1279;22184;-81
2023/09/10 02:26:20;;;;;;;20.10;10.50;;;;;;;14.24;85.92;100572.48;109792;1280;22278;-81
2023/09/10 02:28:51;;;;;;;24.60;12.30;;;;;;;14.21;86.09;100566.98;109798;1284;22331;-81
2023/09/10 02:31:22;;;;;;;23.70;12.20;;;;;;;14.18;86.04;100563.14;109797;1277;22157;-81
2023/09/10 02:34:00;;;;;;;23.40;10.40;;;;;;;14.14;85.96;100558.03;109777;1283;22192;-81
2023/09/10 02:36:31;;;;;;;22.10;12.20;;;;;;;14.09;85.94;100558.91;109767;1277;22866;-79
2023/09/10 02:39:02;;;;;;;22.10;10.60;;;;;;;14.06;86.00;100560.61;109768;1283;22169;-79
2023/09/10 02:41:32;;;;;;;24.20;11.60;;;;;;;14.05;85.94;100560.00;109775;1284;22280;-79
2023/09/10 02:44:03;;;;;;;24.00;12.20;;;;;;;14.03;85.87;100564.41;109763;1284;22201;-81
2023/09/10 02:46:34;;;;;;;21.60;10.80;;;;;;;13.98;85.96;100564.27;109780;1283;22148;-79
2023/09/10 02:49:05;;;;;;;20.60;10.80;;;;;;;13.93;85.94;100558.99;109763;1280;22210;-79
2023/09/10 02:51:36;;;;;;;24.10;12.60;;;;;;;13.89;86.17;100561.52;109773;1284;22258;-79
2023/09/10 02:54:07;;;;;;;22.10;11.40;;;;;;;13.87;86.13;100562.09;109767;1273;22338;-79
2023/09/10 02:56:37;;;;;;;22.40;12.30;;;;;;;13.87;86.18;100559.95;109771;1280;23025;-80
2023/09/10 02:59:08;;;;;;;21.80;10.70;;;;;;;13.87;86.33;100559.73;109789;1282;22347;-79
2023/09/10 03:01:39;;;;;;;23.70;11.40;;;;;;;13.84;86.58;100561.20;109796;1284;22399;-80
2023/09/10 03:04:10;;;;;;;23.80;12.00;;;;;;;13.82;86.63;100557.77;109758;1284;22199;-79
2023/09/10 03:06:44;;;;;;;24.10;11.60;;;;;;;13.82;86.55;100554.14;109822;1277;22413;-79
2023/09/10 03:09:15;;;;;;;22.20;11.70;;;;;;;13.83;86.77;100550.23;109798;1264;22972;-79
2023/09/10 03:11:47;;;;;;;22.30;12.30;;;;;;;13.85;87.09;100552.29;109765;1273;22306;-80
2023/09/10 03:14:17;;;;;;;24.60;13.70;;;;;;;13.87;87.49;100545.67;109773;1276;22248;-80
2023/09/10 03:16:48;;;;;;;28.60;14.80;;;;;;;13.88;87.81;100538.85;109777;1282;22357;-79
2023/09/10 03:19:19;;;;;;;24.50;13.80;;;;;;;13.88;88.38;100537.02;109792;1284;22211;-80
2023/09/10 03:21:50;;;;;;;27.10;14.50;;;;;;;13.88;88.72;100541.91;109780;1280;22170;-80
2023/09/10 03:24:23;;;;;;;28.80;15.10;;;;;;;13.89;88.77;100542.27;109772;1276;22228;-80
2023/09/10 03:26:54;;;;;;;26.80;14.30;;;;;;;13.89;88.61;100537.23;109769;1276;22343;-79
2023/09/10 03:29:25;;;;;;;28.30;14.20;;;;;;;13.86;88.55;100538.32;109788;1272;22559;-81
2023/09/10 03:31:55;;;;;;;29.90;14.30;;;;;;;13.83;88.68;100539.98;109779;1277;22207;-79
2023/09/10 03:34:26;;;;;;;27.50;14.40;;;;;;;13.80;88.59;100537.98;109789;1284;22179;-80
2023/09/10 03:36:57;;;;;;;25.40;13.20;;;;;;;13.77;88.42;100531.28;109781;1272;22246;-79
2023/09/10 03:39:28;;;;;;;26.10;13.30;;;;;;;13.76;88.25;100527.34;109792;1277;22685;-81
2023/09/10 03:41:59;;;;;;;29.60;14.70;;;;;;;13.73;88.34;100525.68;109778;1277;22190;-81
2023/09/10 03:44:30;;;;;;;27.10;13.50;;;;;;;13.68;88.49;100525.88;109762;1277;22209;-81
2023/09/10 03:47:02;;;;;;;25.30;14.10;;;;;;;13.64;88.45;100524.40;109644;1284;22248;-79
2023/09/10 03:49:33;;;;;;;27.80;13.60;;;;;;;13.61;88.59;100525.35;109771;1277;22953;-79
2023/09/10 03:52:16;;;;;;;23.20;13.10;;;;;;;13.60;88.49;100525.11;109765;1277;22202;-79
2023/09/10 03:54:47;;;;;;;25.60;13.00;;;;;;;13.59;88.35;100520.02;109730;1277;22315;-79
2023/09/10 03:57:20;;;;;;;25.00;14.30;;;;;;;13.57;88.31;100522.64;109793;1284;22175;-79
2023/09/10 03:59:51;;;;;;;21.90;12.70;;;;;;;13.54;88.37;100520.88;109763;1273;23147;-82
2023/09/10 04:02:22;;;;;;;25.00;12.70;;;;;;;13.52;88.34;100520.14;109732;1284;22389;-79
2023/09/10 04:04:53;;;;;;;27.10;13.30;;;;;;;13.50;88.45;100519.86;109720;1277;22311;-78
2023/09/10 04:07:24;;;;;;;26.90;12.80;;;;;;;13.49;88.56;100516.42;109767;1277;22971;-78
2023/09/10 04:09:54;;;;;;;24.00;13.00;;;;;;;13.47;88.46;100518.05;109740;1283;23179;-78
2023/09/10 04:12:25;;;;;;;24.50;11.90;;;;;;;13.44;88.53;100516.53;109776;1277;23037;-78
2023/09/10 04:14:56;;;;;;;24.00;12.90;;;;;;;13.42;88.52;100510.34;109728;1277;22220;-77
2023/09/10 04:17:28;;;;;;;23.60;12.80;;;;;;;13.40;88.31;100506.59;109754;1277;22301;-79
2023/09/10 04:19:59;;;;;;;27.10;13.60;;;;;;;13.38;88.53;100506.35;109760;1277;22175;-78
2023/09/10 04:22:31;;;;;;;28.00;13.50;;;;;;;13.37;88.72;100508.84;109817;1277;22329;-78
2023/09/10 04:25:11;;;;;;;24.00;12.70;;;;;;;13.36;89.00;100510.46;109833;1276;22175;-78
2023/09/10 04:27:45;;;;;;;26.70;14.50;;;;;;;13.38;89.14;100510.84;109777;1277;22354;-79
2023/09/10 04:30:16;;;;;;;24.80;13.80;;;;;;;13.39;89.52;100512.23;109741;1282;22201;-78
2023/09/10 04:32:49;;;;;;;26.60;14.10;;;;;;;13.40;90.20;100515.50;109743;1280;22149;-78
2023/09/10 04:35:20;;;;;;;25.30;13.40;;;;;;;13.41;90.49;100519.77;109750;1279;22388;-77
2023/09/10 04:37:51;;;;;;;25.10;13.70;;;;;;;13.42;90.81;100518.13;109764;1277;22414;-78
2023/09/10 04:40:25;;;;;;;27.00;15.00;;;;;;;13.43;90.85;100521.15;109745;1280;22168;-79
2023/09/10 04:42:56;;;;;;;26.90;14.50;;;;;;;13.44;91.07;100519.59;109760;1277;22172;-78
2023/09/10 04:45:27;;;;;;;28.80;14.60;;;;;;;13.45;91.23;100523.36;109758;1283;22231;-78
2023/09/10 04:47:57;;;;;;;24.10;13.90;;;;;;;13.46;91.18;100524.77;109736;1277;22926;-79
2023/09/10 04:50:28;;;;;;;26.00;13.90;;;;;;;13.46;91.31;100527.33;109763;1284;22332;-78
2023/09/10 04:53:01;;;;;;;26.00;14.40;;;;;;;13.46;91.42;100526.65;109746;1283;22197;-78
2023/09/10 04:55:31;;;;;;;25.60;14.00;;;;;;;13.47;91.55;100528.09;109752;1277;22224;-81
2023/09/10 04:58:04;;;;;;;26.80;14.70;;;;;;;13.47;91.51;100529.36;109758;1280;22201;-78
2023/09/10 05:00:35;;;;;;;27.90;14.60;;;;;;;13.47;91.62;100528.39;109791;1276;22337;-79
2023/09/10 05:03:06;;;;;;;26.90;15.00;;;;;;;13.47;91.67;100528.59;109723;1280;22965;-79
2023/09/10 05:05:37;;;;;;;26.50;14.80;;;;;;;13.50;91.80;100530.56;109742;1280;22218;-78
2023/09/10 05:08:08;;;;;;;26.40;14.50;;;;;;;13.52;91.52;100528.71;109751;1280;22239;-78
2023/09/10 05:10:38;;;;;;;28.80;13.70;;;;;;;13.56;91.58;100530.73;109762;1280;22953;-78
2023/09/10 05:13:09;;;;;;;29.20;15.40;;;;;;;13.60;91.46;100530.23;109751;1284;22330;-78
2023/09/10 05:15:40;;;;;;;26.90;14.10;;;;;;;13.64;92.02;100530.94;109720;1277;23905;-78
2023/09/10 05:18:11;;;;;;;28.20;15.90;;;;;;;13.69;92.32;100536.55;109776;1284;23128;-78
2023/09/10 05:20:41;;;;;;;28.30;15.60;;;;;;;13.74;92.58;100540.67;109768;1284;23261;-78
2023/09/10 05:23:13;;;;;;;26.40;14.70;;;;;;;13.78;92.70;100540.36;109712;1277;22141;-77
2023/09/10 05:25:43;;;;;;;28.70;16.40;;;;;;;13.82;92.69;100538.22;109743;1284;22893;-77
2023/09/10 05:28:14;;;;;;;31.70;16.00;;;;;;;13.86;92.89;100541.32;109730;1277;22188;-77
2023/09/10 05:30:45;;;;;;;26.10;13.80;;;;;;;13.90;92.35;100540.54;109729;1284;23054;-77
2023/09/10 05:33:15;;;;;;;29.80;15.60;;;;;;;13.95;92.51;100540.04;109761;1276;22175;-79
2023/09/10 05:35:56;;;;;;;30.60;16.90;;;;;;;14.02;92.91;100540.63;109727;1277;22130;-77
2023/09/10 05:38:27;;;;;;;32.30;17.10;;;;;;;14.10;93.28;100543.60;109762;1276;23008;-78
2023/09/10 05:41:04;;;;;;;29.10;17.00;;;;;;;14.16;93.37;100545.23;109747;1277;22670;-78
2023/09/10 05:43:35;;;;;;;31.00;18.10;;;;;;;14.23;93.64;100545.77;109726;1280;22208;-78
2023/09/10 05:46:06;;;;;;;32.20;18.30;;;;;;;14.30;93.85;100547.48;109741;1277;22231;-77
2023/09/10 05:48:37;;;;;;;32.40;17.20;;;;;;;14.37;94.11;100550.06;109764;1266;22166;-77
2023/09/10 05:51:08;;;;;;;32.50;18.50;;;;;;;14.44;94.26;100545.72;109700;1284;22157;-78
2023/09/10 05:53:42;;;;;;;39.90;23.40;;;;;;;14.51;94.42;100547.15;109728;1284;22173;-77
2023/09/10 05:56:13;;;;;;;56.70;34.00;;;;;;;14.59;94.71;100544.83;109723;1277;22313;-78
2023/09/10 05:58:44;;;;;;;38.70;23.20;;;;;;;14.68;95.18;100545.70;109771;1277;22230;-79
2023/09/10 06:01:15;;;;;;;33.20;19.40;;;;;;;14.77;95.58;100541.73;109782;1284;22302;-77
2023/09/10 06:03:46;;;;;;;32.90;19.70;;;;;;;14.85;96.25;100541.56;109731;1273;22214;-78
2023/09/10 06:06:16;;;;;;;33.50;21.80;;;;;;;14.94;96.36;100547.26;109746;1277;22845;-77
2023/09/10 06:08:48;;;;;;;37.60;21.70;;;;;;;15.02;96.32;100545.66;109774;1277;22197;-77
2023/09/10 06:11:18;;;;;;;38.10;20.90;;;;;;;15.10;96.46;100547.05;109752;1280;22157;-76
2023/09/10 06:13:49;;;;;;;35.60;22.10;;;;;;;15.19;96.70;100544.53;109678;1280;22369;-79
2023/09/10 06:16:20;;;;;;;48.90;29.20;;;;;;;15.27;96.78;100547.29;109704;1283;22190;-77
2023/09/10 06:18:51;;;;;;;72.10;45.40;;;;;;;15.36;97.03;100549.59;109743;1276;22409;-77
2023/09/10 06:21:21;;;;;;;40.40;24.40;;;;;;;15.45;97.24;100548.92;109742;1277;22270;-77
2023/09/10 06:23:52;;;;;;;35.30;21.20;;;;;;;15.55;97.78;100553.62;109750;1284;22330;-75
2023/09/10 06:26:23;;;;;;;32.80;20.60;;;;;;;15.63;97.57;100556.69;109733;1284;22161;-77
2023/09/10 06:28:54;;;;;;;33.20;19.50;;;;;;;15.72;97.60;100556.41;109711;1283;22215;-77
2023/09/10 06:31:24;;;;;;;32.30;19.60;;;;;;;15.81;98.32;100558.11;109738;1277;22131;-78
2023/09/10 06:33:56;;;;;;;30.80;19.30;;;;;;;15.91;98.18;100556.50;109720;1278;23517;-78
2023/09/10 06:36:28;;;;;;;32.10;18.20;;;;;;;15.99;97.92;100556.63;109751;1278;22240;-76
2023/09/10 06:38:58;;;;;;;43.80;25.90;;;;;;;16.07;97.97;100555.05;109714;1280;22192;-77
2023/09/10 06:41:29;;;;;;;49.30;25.10;;;;;;;16.14;97.72;100556.54;109715;1283;22133;-78
2023/09/10 06:44:00;;;;;;;35.60;20.70;;;;;;;16.21;97.67;100555.27;109706;1281;22192;-77
2023/09/10 06:46:31;;;;;;;27.90;18.30;;;;;;;16.30;97.92;100557.79;109730;1277;22881;-76
2023/09/10 06:49:02;;;;;;;30.50;17.10;;;;;;;16.37;98.01;100557.80;109723;1280;22220;-77
2023/09/10 06:51:34;;;;;;;31.80;17.50;;;;;;;16.45;97.84;100556.57;109745;1278;22992;-76
2023/09/10 06:54:04;;;;;;;29.00;17.50;;;;;;;16.54;98.17;100558.80;109741;1283;22863;-76
2023/09/10 06:56:35;;;;;;;30.10;16.70;;;;;;;16.63;98.23;100561.05;109728;1277;22160;-77
2023/09/10 06:59:06;;;;;;;43.00;27.20;;;;;;;16.73;98.40;100562.17;109719;1277;22236;-79
2023/09/10 07:01:38;;;;;;;32.00;18.90;;;;;;;16.84;98.41;100560.12;109724;1278;22191;-78
2023/09/10 07:04:20;;;;;;;26.00;15.10;;;;;;;16.98;98.44;100560.30;109712;1280;22665;-78
2023/09/10 07:06:52;;;;;;;26.10;14.50;;;;;;;17.09;97.96;100559.14;109699;1284;22127;-77
2023/09/10 07:09:23;;;;;;;27.90;14.80;;;;;;;17.20;98.10;100557.16;109728;1283;22260;-77
2023/09/10 07:11:55;;;;;;;23.70;13.60;;;;;;;17.31;98.11;100561.08;109696;1284;22342;-77
2023/09/10 07:14:26;;;;;;;31.70;18.90;;;;;;;17.42;98.03;100563.45;109685;1283;22350;-77
2023/09/10 07:16:57;;;;;;;38.40;20.50;;;;;;;17.53;97.88;100564.09;109611;1280;22401;-77
2023/09/10 07:19:28;;;;;;;26.30;13.80;;;;;;;17.64;97.51;100565.86;109658;1277;22156;-78
2023/09/10 07:21:59;;;;;;;27.40;11.90;;;;;;;17.73;97.03;100570.42;109623;1276;22982;-77
2023/09/10 07:24:31;;;;;;;22.60;11.10;;;;;;;17.83;96.91;100567.46;109698;1276;22201;-78
2023/09/10 07:27:02;;;;;;;23.20;11.00;;;;;;;17.93;96.91;100570.70;109730;1277;22797;-77
2023/09/10 07:29:33;;;;;;;19.90;11.00;;;;;;;18.04;96.87;100569.65;109717;1283;22148;-77
2023/09/10 07:32:04;;;;;;;20.00;10.70;;;;;;;18.16;96.51;100569.06;109702;1280;22372;-78
2023/09/10 07:34:37;;;;;;;22.20;10.70;;;;;;;18.25;96.19;100569.46;109717;1276;22288;-78
2023/09/10 07:37:08;;;;;;;20.10;10.40;;;;;;;18.33;95.94;100568.41;109652;1278;22308;-78
2023/09/10 07:39:39;;;;;;;20.10;8.90;;;;;;;18.43;95.86;100566.77;109623;1278;22292;-79
2023/09/10 07:42:10;;;;;;;21.70;8.80;;;;;;;18.58;95.67;100568.36;109730;1280;22853;-80
2023/09/10 07:44:42;;;;;;;19.50;10.10;;;;;;;18.74;95.26;100569.66;109685;1277;23353;-79
2023/09/10 07:47:13;;;;;;;26.90;14.40;;;;;;;18.86;94.81;100565.02;109680;1277;22289;-78
2023/09/10 07:49:45;;;;;;;18.20;8.10;;;;;;;18.97;94.42;100566.48;109639;1277;22345;-76
2023/09/10 07:52:16;;;;;;;16.70;8.40;;;;;;;19.10;94.31;100567.86;109678;1277;22555;-80
2023/09/10 07:54:48;;;;;;;20.20;8.50;;;;;;;19.20;93.78;100570.38;109678;1277;22367;-79
2023/09/10 07:57:19;;;;;;;17.90;7.70;;;;;;;19.27;93.23;100567.48;109676;1277;22281;-80
2023/09/10 07:59:52;;;;;;;23.20;8.00;;;;;;;19.33;93.13;100563.55;109731;1277;23116;-79
2023/09/10 08:02:26;;;;;;;17.20;7.30;;;;;;;19.46;92.63;100560.13;109750;1279;22195;-79
2023/09/10 08:05:00;;;;;;;18.10;7.90;;;;;;;19.59;92.89;100559.77;109669;1277;22189;-78
2023/09/10 08:07:30;;;;;;;17.70;7.50;;;;;;;19.74;92.67;100555.13;109755;1277;22202;-78
2023/09/10 08:10:02;;;;;;;15.90;6.60;;;;;;;19.82;91.61;100562.17;109729;1284;22983;-79
2023/09/10 08:12:33;;;;;;;15.40;6.50;;;;;;;19.91;91.39;100555.06;109765;1283;22946;-79
2023/09/10 08:15:04;;;;;;;14.10;5.70;;;;;;;20.10;91.19;100556.95;109514;1277;23362;-79
2023/09/10 08:17:36;;;;;;;15.40;6.50;;;;;;;20.29;90.53;100554.38;107921;1277;25475;-78
2023/09/10 08:20:10;;;;;;;17.50;6.40;;;;;;;20.39;90.17;100545.90;109675;1277;22384;-79
2023/09/10 08:22:45;;;;;;;14.70;6.20;;;;;;;20.50;89.89;100539.29;109749;1278;22345;-79
2023/09/10 08:25:16;;;;;;;12.30;5.10;;;;;;;20.59;89.58;100540.67;109669;1283;22141;-79
2023/09/10 08:27:47;;;;;;;15.00;6.00;;;;;;;20.66;89.17;100540.30;109693;1277;23406;-79
2023/09/10 08:30:18;;;;;;;16.40;6.80;;;;;;;20.78;89.24;100540.19;109674;1277;23441;-78
2023/09/10 08:32:49;;;;;;;13.90;5.20;;;;;;;20.90;88.62;100536.92;109669;1277;23154;-78
2023/09/10 08:35:22;;;;;;;14.80;5.70;;;;;;;20.98;88.29;100536.73;109645;1277;22306;-79
2023/09/10 08:37:56;;;;;;;14.40;5.20;;;;;;;21.07;87.91;100535.20;109703;1284;22219;-79
2023/09/10 08:40:30;;;;;;;15.50;5.80;;;;;;;21.16;87.40;100534.86;109706;1284;22211;-78
2023/09/10 08:43:08;;;;;;;18.50;5.90;;;;;;;21.28;87.11;100537.20;109703;1277;22210;-79
2023/09/10 08:45:39;;;;;;;11.60;4.90;;;;;;;21.42;86.40;100535.37;109516;1277;22986;-79
2023/09/10 08:48:11;;;;;;;15.60;4.80;;;;;;;21.57;86.20;100536.23;109641;1277;22195;-80
2023/09/10 08:50:43;;;;;;;12.60;5.00;;;;;;;21.67;86.05;100537.98;109631;1277;22224;-79
2023/09/10 08:53:15;;;;;;;15.30;5.30;;;;;;;21.71;85.22;100537.53;109773;1274;22164;-79
2023/09/10 08:55:47;;;;;;;12.70;4.40;;;;;;;21.79;84.70;100538.16;109721;1283;22186;-79
2023/09/10 08:58:22;;;;;;;13.30;4.40;;;;;;;21.84;84.51;100531.55;109724;1277;22251;-79
2023/09/10 09:00:54;;;;;;;11.90;3.90;;;;;;;21.92;83.83;100533.77;109710;1277;22221;-79
2023/09/10 09:03:27;;;;;;;12.40;4.20;;;;;;;22.05;83.14;100532.09;109740;1283;23096;-79
2023/09/10 09:06:02;;;;;;;12.80;4.30;;;;;;;22.20;82.10;100531.86;109695;1283;22195;-79
2023/09/10 09:08:35;;;;;;;11.60;4.10;;;;;;;22.32;81.46;100530.63;109730;1284;23386;-78
2023/09/10 09:11:06;;;;;;;12.80;4.40;;;;;;;22.40;81.88;100532.30;109730;1277;22172;-78
2023/09/10 09:13:39;;;;;;;9.90;4.20;;;;;;;22.46;81.42;100528.31;109735;1278;22211;-78
2023/09/10 09:16:11;;;;;;;13.60;5.20;;;;;;;22.55;81.02;100532.65;109674;1283;22167;-78
2023/09/10 09:18:42;;;;;;;10.50;4.10;;;;;;;22.61;80.73;100533.90;109721;1283;22794;-78
2023/09/10 09:21:17;;;;;;;9.80;3.60;;;;;;;22.70;79.80;100539.48;109734;1284;22163;-78
2023/09/10 09:23:55;;;;;;;13.50;4.20;;;;;;;22.80;78.38;100536.00;109687;1280;22128;-79
2023/09/10 09:26:27;;;;;;;10.10;2.80;;;;;;;22.90;77.64;100535.89;109712;1284;22196;-79
2023/09/10 09:28:58;;;;;;;11.70;3.20;;;;;;;22.98;76.93;100534.17;109729;1283;22201;-79
2023/09/10 09:31:29;;;;;;;15.50;3.00;;;;;;;23.11;76.58;100535.02;109714;1283;22366;-79
2023/09/10 09:34:04;;;;;;;10.00;2.90;;;;;;;23.25;75.62;100536.38;109730;1284;23308;-79
2023/09/10 09:36:39;;;;;;;14.00;3.90;;;;;;;23.32;75.28;100534.06;109702;1284;22179;-79
2023/09/10 09:39:11;;;;;;;12.50;3.20;;;;;;;23.40;75.22;100530.77;109682;1284;23040;-79
2023/09/10 09:41:42;;;;;;;10.00;3.10;;;;;;;23.46;74.18;100525.90;109710;1284;22367;-79
2023/09/10 09:44:23;;;;;;;11.30;3.70;;;;;;;23.53;73.99;100532.51;109575;1284;25230;-79
2023/09/10 09:46:59;;;;;;;10.40;3.40;;;;;;;23.58;73.61;100531.78;107160;1278;22851;-78
2023/09/10 09:49:30;;;;;;;11.70;3.00;;;;;;;23.64;72.65;100528.95;109680;1277;22327;-78
2023/09/10 09:52:02;;;;;;;11.20;3.00;;;;;;;23.70;72.67;100528.56;109750;1276;22943;-79
2023/09/10 09:54:34;;;;;;;13.00;3.90;;;;;;;23.76;72.54;100521.23;109729;1282;23054;-78
2023/09/10 09:57:08;;;;;;;8.40;3.00;;;;;;;23.84;71.85;100518.81;109726;1280;22272;-78
2023/09/10 09:59:39;;;;;;;8.10;2.80;;;;;;;24.03;70.74;100515.49;109692;1284;23146;-79
2023/09/10 10:02:14;;;;;;;8.60;2.70;;;;;;;24.14;69.72;100513.43;109684;1279;23415;-78
2023/09/10 10:04:45;;;;;;;12.80;2.90;;;;;;;24.25;69.43;100512.80;109667;1277;23163;-78
2023/09/10 10:07:17;;;;;;;8.70;2.30;;;;;;;24.37;68.20;100510.85;109544;1280;205669;-79
2023/09/10 10:09:48;;;;;;;8.00;2.50;;;;;;;24.42;67.39;100507.30;109712;1280;22617;-79
2023/09/10 10:12:18;;;;;;;10.10;3.20;;;;;;;24.48;67.18;100504.16;109678;1277;23082;-79
2023/09/10 10:14:50;;;;;;;6.80;2.20;;;;;;;24.62;66.78;100509.34;109714;1284;22204;-78
2023/09/10 10:17:24;;;;;;;15.30;2.40;;;;;;;24.80;66.00;100502.20;109718;1284;22316;-78
2023/09/10 10:19:57;;;;;;;10.50;2.80;;;;;;;24.91;65.47;100503.33;109674;1281;22208;-78
2023/09/10 10:22:29;;;;;;;6.10;2.20;;;;;;;25.05;64.54;100500.68;109739;1284;22158;-78
2023/09/10 10:25:00;;;;;;;8.40;2.00;;;;;;;25.12;64.56;100496.29;109733;1281;22201;-79
2023/09/10 10:27:32;;;;;;;10.00;2.50;;;;;;;25.14;64.08;100492.05;109700;1280;22822;-79
2023/09/10 10:30:03;;;;;;;7.70;2.90;;;;;;;25.15;64.24;100488.93;109692;1276;22331;-78
2023/09/10 10:32:39;;;;;;;9.90;2.20;;;;;;;25.16;62.81;100488.88;109685;1269;22204;-79
2023/09/10 10:35:12;;;;;;;6.70;2.20;;;;;;;25.19;62.62;100490.59;109691;1277;22291;-79
2023/09/10 10:37:52;;;;;;;12.00;2.20;;;;;;;25.26;62.42;100482.73;109728;1278;22171;-79
2023/09/10 10:40:28;;;;;;;15.10;3.70;;;;;;;25.36;61.98;100483.30;109744;1284;22199;-79
2023/09/10 10:43:03;;;;;;;11.90;2.70;;;;;;;25.43;62.38;100477.66;109704;1284;22506;-80
2023/09/10 10:45:36;;;;;;;10.10;3.00;;;;;;;25.47;62.42;100475.02;109711;1284;22169;-79
2023/09/10 10:48:19;;;;;;;12.10;2.80;;;;;;;25.49;61.46;100471.77;109687;1278;22210;-79
2023/09/10 10:50:52;;;;;;;8.40;2.20;;;;;;;25.54;60.78;100466.64;109709;1280;22219;-79
2023/09/10 10:53:24;;;;;;;10.40;2.10;;;;;;;25.64;60.39;100470.23;109727;1284;22207;-79
2023/09/10 10:55:58;;;;;;;9.00;2.00;;;;;;;25.76;59.87;100467.33;109705;1284;22196;-79
2023/09/10 10:58:29;;;;;;;7.90;2.00;;;;;;;25.85;59.29;100470.40;109720;1284;22360;-78
2023/09/10 11:01:02;;;;;;;9.20;2.30;;;;;;;25.88;58.68;100468.48;109717;1284;22934;-79
2023/09/10 11:03:35;;;;;;;6.80;2.30;;;;;;;25.89;58.28;100470.73;109701;1284;22396;-79
2023/09/10 11:06:08;;;;;;;7.80;1.80;;;;;;;25.89;58.03;100467.90;109664;1278;22357;-79
2023/09/10 11:08:41;;;;;;;7.40;2.00;;;;;;;25.89;57.29;100468.17;109656;1280;22202;-79
2023/09/10 11:11:33;;;;;;;9.40;2.60;;;;;;;25.90;56.94;100467.13;109643;1279;22184;-80
2023/09/10 11:14:08;;;;;;;9.40;1.90;;;;;;;25.92;55.88;100467.70;109676;1278;22207;-80
2023/09/10 11:16:42;;;;;;;9.90;2.00;;;;;;;25.95;55.93;100467.27;109678;1284;23509;-79
2023/09/10 11:19:44;;;;;;;9.90;2.20;;;;;;;25.98;55.90;100463.14;109644;1274;22338;-79
2023/09/10 11:22:16;;;;;;;9.80;1.90;;;;;;;26.05;55.62;100461.27;109748;1279;23081;-79
2023/09/10 11:25:02;;;;;;;7.40;1.80;;;;;;;26.08;55.03;100460.89;109630;1276;23231;-78
2023/09/10 11:27:34;;;;;;;8.30;2.00;;;;;;;26.12;53.51;100451.83;109725;1268;22343;-80